createdAt,value
2019-05-09T00:01:43.952Z,2.57
2019-05-09T00:04:14.027Z,2.60
2019-05-09T00:06:43.512Z,3.10
2019-05-09T00:09:14.054Z,2.40
2019-05-09T00:11:44.027Z,2.50
2019-05-09T00:14:13.736Z,2.80
2019-05-09T00:16:44.063Z,2.90
2019-05-09T00:19:13.980Z,3.13
2019-05-09T00:21:44.960Z,3.03
2019-05-09T00:24:14.323Z,2.70
2019-05-09T00:26:44.371Z,3.20
2019-05-09T00:29:18.098Z,3.10
2019-05-09T00:31:49.155Z,3.27
2019-05-09T00:34:36.374Z,2.63
2019-05-09T00:37:05.755Z,3.20
2019-05-09T00:39:35.111Z,3.10
2019-05-09T00:42:04.611Z,3.67
2019-05-09T00:44:35.585Z,3.77
2019-05-09T00:47:09.381Z,3.90
2019-05-09T00:49:38.730Z,3.03
2019-05-09T00:52:08.408Z,3.10
2019-05-09T00:54:37.746Z,3.27
2019-05-09T00:57:07.222Z,3.17
2019-05-09T00:59:36.586Z,2.90
2019-05-09T01:02:05.951Z,3.73
2019-05-09T01:04:35.526Z,2.97
2019-05-09T01:07:05.566Z,3.37
2019-05-09T01:09:34.930Z,3.40
2019-05-09T01:12:04.329Z,3.20
2019-05-09T01:14:34.198Z,3.30
2019-05-09T01:17:04.270Z,3.27
2019-05-09T01:19:33.985Z,3.80
2019-05-09T01:22:04.319Z,3.13
2019-05-09T01:24:33.925Z,3.57
2019-05-09T01:27:03.797Z,3.30
2019-05-09T01:29:33.881Z,3.10
2019-05-09T01:32:05.563Z,3.63
2019-05-09T01:34:36.411Z,3.27
2019-05-09T01:37:10.178Z,3.40
2019-05-09T01:39:39.621Z,3.00
2019-05-09T01:42:09.189Z,3.90
2019-05-09T01:44:38.660Z,3.27
2019-05-09T01:47:09.301Z,3.60
2019-05-09T01:49:38.673Z,3.73
2019-05-09T01:52:08.674Z,4.40
2019-05-09T02:14:55.857Z,4.37
2019-05-09T02:17:26.835Z,4.80
2019-05-09T02:19:56.209Z,4.60
2019-05-09T02:22:34.958Z,5.07
2019-05-09T02:25:10.126Z,5.70
2019-05-09T02:27:39.567Z,4.60
2019-05-09T02:30:15.205Z,4.50
2019-05-09T02:32:44.949Z,5.70
2019-05-09T02:35:15.499Z,6.33
2019-05-09T02:37:44.863Z,4.57
2019-05-09T02:40:14.520Z,5.17
2019-05-09T02:42:43.935Z,5.93
2019-05-09T02:45:13.797Z,5.37
2019-05-09T02:47:43.160Z,4.63
2019-05-09T02:50:13.061Z,4.80
2019-05-09T02:52:42.407Z,5.30
2019-05-09T02:55:12.246Z,5.33
2019-05-09T02:57:41.994Z,4.20
2019-05-09T03:00:30.133Z,4.60
2019-05-09T03:03:19.939Z,4.50
2019-05-09T03:05:49.681Z,4.87
2019-05-09T03:08:19.527Z,4.37
2019-05-09T03:10:49.423Z,4.47
2019-05-09T03:13:19.379Z,5.50
2019-05-09T03:15:50.532Z,5.83
2019-05-09T03:18:19.918Z,5.87
2019-05-09T03:20:50.929Z,6.17
2019-05-09T03:23:20.286Z,4.67
2019-05-09T03:25:49.688Z,6.13
2019-05-09T03:28:38.671Z,5.73
2019-05-09T03:31:09.425Z,5.13
2019-05-09T03:33:40.474Z,5.47
2019-05-09T03:36:10.407Z,6.37
2019-05-09T03:38:40.275Z,6.17
2019-05-09T03:41:09.623Z,5.90
2019-05-09T03:43:38.977Z,5.63
2019-05-09T03:46:28.147Z,5.80
2019-05-09T03:49:01.898Z,5.73
2019-05-09T03:51:31.264Z,4.67
2019-05-09T03:54:00.957Z,5.73
2019-05-09T03:56:37.458Z,6.43
2019-05-09T03:59:08.258Z,4.80
2019-05-09T04:01:38.180Z,4.47
2019-05-09T04:04:08.742Z,5.10
2019-05-09T04:06:39.170Z,5.00
2019-05-09T04:09:10.440Z,5.00
2019-05-09T04:11:39.814Z,5.00
2019-05-09T04:14:17.565Z,4.67
2019-05-09T04:16:48.258Z,5.90
2019-05-09T04:19:17.670Z,4.90
2019-05-09T04:21:48.382Z,4.80
2019-05-09T04:24:17.872Z,4.30
2019-05-09T04:26:51.800Z,4.40
2019-05-09T04:29:21.514Z,4.77
2019-05-09T04:31:50.871Z,4.30
2019-05-09T04:34:20.225Z,4.80
2019-05-09T04:36:49.615Z,4.70
2019-05-09T04:39:23.604Z,4.10
2019-05-09T04:41:50.061Z,3.67
2019-05-09T04:44:21.885Z,4.70
2019-05-09T04:46:54.293Z,4.43
2019-05-09T04:49:22.391Z,5.33
2019-05-09T04:51:51.779Z,4.43
2019-05-09T04:54:21.151Z,4.13
2019-05-09T04:56:53.658Z,5.03
2019-05-09T04:59:21.593Z,4.00
2019-05-09T05:02:08.859Z,4.60
2019-05-09T05:04:38.188Z,4.30
2019-05-09T05:07:07.784Z,4.80
2019-05-09T05:09:37.998Z,4.13
2019-05-09T05:12:08.518Z,3.70
2019-05-09T05:14:38.579Z,4.80
2019-05-09T05:17:11.112Z,4.07
2019-05-09T05:19:39.179Z,4.20
2019-05-09T05:22:12.834Z,4.53
2019-05-09T05:24:43.837Z,4.33
2019-05-09T05:27:13.232Z,4.17
2019-05-09T05:29:42.601Z,3.80
2019-05-09T05:32:13.593Z,4.60
2019-05-09T05:34:44.605Z,4.27
2019-05-09T05:37:13.964Z,4.30
2019-05-09T05:39:43.306Z,4.60
2019-05-09T05:42:12.686Z,4.17
2019-05-09T05:44:42.037Z,3.93
2019-05-09T05:47:13.035Z,4.23
2019-05-09T05:49:42.485Z,3.83
2019-05-09T05:52:11.830Z,4.30
2019-05-09T05:54:41.219Z,4.53
2019-05-09T05:57:10.609Z,3.67
2019-05-09T05:59:41.062Z,3.53
2019-05-09T06:02:10.833Z,3.90
2019-05-09T06:04:40.191Z,3.80
2019-05-09T06:07:09.572Z,3.27
2019-05-09T06:09:39.006Z,3.33
2019-05-09T06:12:08.839Z,3.43
2019-05-09T06:14:38.196Z,4.57
2019-05-09T06:17:08.170Z,3.10
2019-05-09T06:19:38.172Z,3.77
2019-05-09T06:22:08.433Z,3.83
2019-05-09T06:24:38.699Z,3.57
2019-05-09T06:27:10.391Z,2.70
2019-05-09T06:29:39.549Z,3.00
2019-05-09T06:32:08.880Z,2.53
2019-05-09T06:34:41.870Z,2.13
2019-05-09T06:37:09.448Z,2.83
2019-05-09T06:39:39.195Z,2.97
2019-05-09T06:42:09.302Z,2.90
2019-05-09T06:44:40.985Z,2.30
2019-05-09T06:47:11.986Z,2.77
2019-05-09T06:49:43.324Z,2.23
2019-05-09T06:52:12.686Z,2.40
2019-05-09T06:54:42.042Z,2.20
2019-05-09T06:57:11.442Z,2.30
2019-05-09T06:59:40.807Z,2.80
2019-05-09T07:02:11.836Z,2.30
2019-05-09T07:04:43.101Z,2.07
2019-05-09T07:07:17.746Z,2.23
2019-05-09T07:09:48.855Z,2.33
2019-05-09T07:12:18.273Z,2.73
2019-05-09T07:14:48.746Z,2.40
2019-05-09T07:17:18.764Z,1.53
2019-05-09T07:19:49.058Z,2.40
2019-05-09T07:22:20.277Z,2.20
2019-05-09T07:25:11.158Z,1.67
2019-05-09T07:27:45.100Z,2.00
2019-05-09T07:30:18.416Z,2.30
2019-05-09T07:33:01.689Z,1.90
2019-05-09T07:35:31.066Z,2.60
2019-05-09T07:38:00.436Z,2.20
2019-05-09T07:40:30.847Z,1.83
2019-05-09T07:43:00.720Z,2.10
2019-05-09T07:45:30.086Z,2.50
2019-05-09T07:47:59.438Z,2.03
2019-05-09T07:50:28.817Z,2.20
2019-05-09T07:52:58.407Z,2.20
2019-05-09T07:55:27.719Z,2.30
2019-05-09T07:57:59.121Z,1.90
2019-05-09T08:00:34.413Z,2.37
2019-05-09T08:03:03.841Z,5.63
2019-05-09T08:05:33.426Z,2.50
2019-05-09T08:08:04.141Z,2.23
2019-05-09T08:10:33.580Z,2.37
2019-05-09T08:13:02.915Z,2.03
2019-05-09T08:15:32.277Z,2.13
2019-05-09T08:18:01.680Z,2.40
2019-05-09T08:20:31.050Z,2.10
2019-05-09T08:23:02.076Z,2.07
2019-05-09T08:25:31.647Z,2.40
2019-05-09T08:28:01.054Z,2.10
2019-05-09T08:30:35.742Z,2.50
2019-05-09T08:33:01.562Z,2.30
2019-05-09T08:35:30.939Z,2.07
2019-05-09T08:38:00.312Z,3.10
2019-05-09T08:40:29.715Z,2.77
2019-05-09T08:42:59.249Z,2.20
2019-05-09T08:45:31.566Z,2.37
2019-05-09T08:47:59.870Z,2.80
2019-05-09T08:50:38.881Z,3.20
2019-05-09T08:53:08.476Z,2.93
2019-05-09T08:55:38.464Z,2.83
2019-05-09T08:58:08.259Z,3.00
2019-05-09T09:00:39.015Z,3.90
2019-05-09T09:03:08.624Z,2.67
2019-05-09T09:05:38.327Z,3.13
2019-05-09T09:08:08.595Z,3.13
2019-05-09T09:10:38.996Z,3.10
2019-05-09T09:13:09.083Z,3.03
2019-05-09T09:18:09.652Z,3.00
2019-05-09T09:20:39.171Z,3.03
2019-05-09T09:23:09.231Z,3.00
2019-05-09T09:25:39.304Z,2.50
2019-05-09T09:28:09.166Z,2.67
2019-05-09T09:30:39.571Z,2.50
2019-05-09T09:33:13.521Z,2.10
2019-05-09T09:35:40.035Z,2.20
2019-05-09T09:38:09.631Z,2.43
2019-05-09T09:40:38.999Z,1.80
2019-05-09T09:43:09.416Z,1.50
2019-05-09T09:45:38.908Z,1.60
2019-05-09T09:48:09.811Z,2.20
2019-05-09T09:50:39.169Z,1.50
2019-05-09T09:53:09.211Z,1.60
2019-05-09T09:55:38.862Z,1.37
2019-05-09T09:58:08.467Z,1.40
2019-05-09T10:00:48.238Z,1.30
2019-05-09T10:03:18.647Z,1.40
2019-05-09T10:05:48.731Z,1.20
2019-05-09T10:08:18.597Z,1.20
2019-05-09T10:10:48.590Z,1.20
2019-05-09T10:13:19.460Z,1.40
2019-05-09T10:15:58.532Z,1.10
2019-05-09T10:18:40.735Z,4.13
2019-05-09T10:21:11.754Z,1.20
2019-05-09T10:23:41.119Z,1.13
2019-05-09T10:26:10.491Z,1.10
2019-05-09T10:28:39.894Z,1.57
2019-05-09T10:31:09.658Z,1.10
2019-05-09T10:33:38.983Z,1.53
2019-05-09T10:36:08.754Z,1.10
2019-05-09T10:38:38.832Z,1.10
2019-05-09T10:41:11.352Z,1.10
2019-05-09T10:43:57.851Z,0.90
2019-05-09T10:46:47.734Z,1.00
2019-05-09T10:49:04.598Z,1.10
2019-05-09T10:51:34.121Z,0.90
2019-05-09T10:54:03.589Z,0.90
2019-05-09T10:56:32.956Z,0.97
2019-05-09T10:59:02.303Z,1.00
2019-05-09T11:01:31.665Z,1.00
2019-05-09T11:04:01.070Z,0.97
2019-05-09T11:06:30.431Z,1.00
2019-05-09T11:08:59.810Z,1.37
2019-05-09T11:11:29.364Z,1.00
2019-05-09T11:13:59.216Z,1.30
2019-05-09T11:16:42.296Z,1.00
2019-05-09T11:19:00.750Z,1.20
2019-05-09T11:21:30.112Z,0.90
2019-05-09T11:23:59.481Z,0.97
2019-05-09T11:26:29.096Z,1.07
2019-05-09T11:28:59.023Z,0.93
2019-05-09T11:31:29.601Z,1.10
2019-05-09T11:33:59.168Z,1.00
2019-05-09T11:36:28.608Z,1.10
2019-05-09T11:39:00.528Z,1.10
2019-05-09T11:41:30.129Z,1.00
2019-05-09T11:44:00.047Z,1.23
2019-05-09T11:46:29.506Z,0.93
2019-05-09T11:48:59.443Z,1.13
2019-05-09T11:51:29.535Z,1.00
2019-05-09T11:53:59.112Z,0.90
2019-05-09T11:56:28.500Z,2.77
2019-05-09T11:58:58.132Z,1.20
2019-05-09T12:01:29.238Z,1.10
2019-05-09T12:03:58.883Z,1.33
2019-05-09T12:06:29.252Z,1.10
2019-05-09T12:08:59.153Z,0.83
2019-05-09T12:11:29.578Z,1.35
2019-05-09T12:13:58.944Z,1.00
2019-05-09T12:16:28.325Z,1.23
2019-05-09T12:18:58.527Z,0.80
2019-05-09T12:21:28.599Z,0.87
2019-05-09T12:23:58.603Z,1.53
2019-05-09T12:26:29.093Z,0.83
2019-05-09T12:28:58.793Z,0.80
2019-05-09T12:31:29.119Z,0.80
2019-05-09T12:33:59.532Z,1.00
2019-05-09T12:36:29.209Z,0.80
2019-05-09T12:38:59.425Z,0.90
2019-05-09T12:41:31.409Z,0.90
2019-05-09T12:44:00.044Z,1.00
2019-05-09T12:46:29.416Z,0.80
2019-05-09T12:49:00.433Z,0.70
2019-05-09T12:51:29.804Z,0.97
2019-05-09T12:53:59.178Z,1.00
2019-05-09T12:56:28.762Z,1.10
2019-05-09T12:58:58.983Z,0.80
2019-05-09T13:01:28.350Z,0.87
2019-05-09T13:03:58.452Z,0.90
2019-05-09T13:06:29.599Z,1.43
2019-05-09T13:08:59.024Z,1.07
2019-05-09T13:11:28.482Z,1.30
2019-05-09T13:13:57.864Z,0.90
2019-05-09T13:16:43.993Z,1.17
2019-05-09T13:19:18.531Z,1.10
2019-05-09T13:21:49.074Z,0.80
2019-05-09T13:24:19.579Z,0.90
2019-05-09T13:26:50.980Z,0.80
2019-05-09T13:29:20.339Z,0.90
2019-05-09T13:31:49.694Z,1.20
2019-05-09T13:34:19.166Z,1.00
2019-05-09T13:36:49.071Z,1.10
2019-05-09T13:39:18.499Z,1.00
2019-05-09T13:41:48.515Z,1.53
2019-05-09T13:44:18.306Z,1.10
2019-05-09T13:46:48.865Z,1.10
2019-05-09T13:49:19.488Z,1.27
2019-05-09T13:51:58.560Z,0.80
2019-05-09T13:54:20.128Z,1.00
2019-05-09T13:56:56.637Z,1.00
2019-05-09T13:59:20.859Z,0.90
2019-05-09T14:01:50.287Z,1.20
2019-05-09T14:04:19.695Z,0.90
2019-05-09T14:06:49.052Z,1.10
2019-05-09T14:09:19.996Z,1.10
2019-05-09T14:11:49.602Z,1.13
2019-05-09T14:14:18.970Z,1.20
2019-05-09T14:16:48.343Z,1.20
2019-05-09T14:19:36.094Z,1.17
2019-05-09T14:21:48.850Z,1.40
2019-05-09T14:24:19.416Z,1.23
2019-05-09T14:26:51.034Z,1.30
2019-05-09T14:29:20.893Z,1.40
2019-05-09T14:31:50.343Z,1.33
2019-05-09T14:34:20.121Z,1.30
2019-05-09T14:36:49.765Z,1.30
2019-05-09T14:39:19.190Z,1.40
2019-05-09T14:41:48.586Z,1.70
2019-05-09T14:44:18.504Z,1.50
2019-05-09T14:46:48.338Z,1.97
2019-05-09T14:49:17.936Z,1.63
2019-05-09T14:51:49.796Z,1.70
2019-05-09T14:54:18.434Z,1.63
2019-05-09T14:56:48.694Z,2.00
2019-05-09T14:59:18.916Z,1.83
2019-05-09T15:01:49.585Z,1.60
2019-05-09T15:04:19.800Z,1.97
2019-05-09T15:06:49.161Z,1.67
2019-05-09T15:09:18.536Z,1.50
2019-05-09T15:11:48.558Z,1.70
2019-05-09T15:14:18.358Z,1.60
2019-05-09T15:16:48.677Z,2.10
2019-05-09T15:19:18.860Z,1.47
2019-05-09T15:21:48.862Z,2.10
2019-05-09T15:24:19.382Z,1.97
2019-05-09T15:26:49.386Z,1.53
2019-05-09T15:29:18.768Z,1.77
2019-05-09T15:31:54.233Z,1.60
2019-05-09T15:34:20.988Z,1.70
2019-05-09T15:36:50.351Z,1.40
2019-05-09T15:39:19.719Z,1.40
2019-05-09T15:41:49.120Z,1.47
2019-05-09T15:44:18.850Z,1.30
2019-05-09T15:46:50.030Z,1.30
2019-05-09T15:49:19.426Z,1.40
2019-05-09T15:51:48.810Z,1.40
2019-05-09T15:54:18.159Z,1.40
2019-05-09T15:56:48.469Z,1.30
2019-05-09T15:59:18.478Z,1.50
2019-05-09T16:01:49.189Z,1.00
2019-05-09T16:04:18.807Z,1.23
2019-05-09T16:06:50.564Z,1.20
2019-05-09T16:09:19.512Z,1.03
2019-05-09T16:11:48.961Z,1.10
2019-05-09T16:14:18.675Z,1.20
2019-05-09T16:16:48.238Z,1.00
2019-05-09T16:19:17.623Z,1.30
2019-05-09T16:21:47.876Z,0.90
2019-05-09T16:24:18.878Z,1.30
2019-05-09T16:26:48.914Z,1.27
2019-05-09T16:29:19.457Z,1.10
2019-05-09T16:31:48.926Z,1.00
2019-05-09T16:34:18.685Z,1.10
2019-05-09T16:36:48.280Z,1.10
2019-05-09T16:39:18.319Z,1.00
2019-05-09T16:41:48.647Z,1.30
2019-05-09T16:44:18.652Z,1.03
2019-05-09T16:46:48.751Z,1.40
2019-05-09T16:49:20.000Z,1.10
2019-05-09T16:51:49.522Z,1.40
2019-05-09T16:54:19.551Z,1.30
2019-05-09T16:56:49.282Z,1.10
2019-05-09T16:59:18.674Z,1.20
2019-05-09T17:01:50.378Z,1.30
2019-05-09T17:04:19.441Z,1.20
2019-05-09T17:06:49.743Z,1.20
2019-05-09T17:09:19.370Z,1.20
2019-05-09T17:11:48.854Z,1.10
2019-05-09T17:14:19.257Z,1.53
2019-05-09T17:16:52.537Z,1.00
2019-05-09T17:19:20.380Z,1.20
2019-05-09T17:21:51.781Z,1.00
2019-05-09T17:24:22.428Z,1.10
2019-05-09T17:26:51.837Z,1.17
2019-05-09T17:29:21.225Z,1.00
2019-05-09T17:31:50.690Z,1.20
2019-05-09T17:34:20.066Z,0.90
2019-05-09T17:36:49.429Z,1.00
2019-05-09T17:39:18.786Z,0.93
2019-05-09T17:41:48.176Z,1.00
2019-05-09T17:44:18.608Z,1.00
2019-05-09T17:46:48.222Z,0.90
2019-05-09T17:49:17.732Z,1.10
2019-05-09T17:51:48.283Z,1.10
2019-05-09T17:54:18.384Z,1.10
2019-05-09T17:56:48.526Z,1.00
2019-05-09T17:59:18.567Z,1.00
2019-05-09T18:01:48.321Z,1.07
2019-05-09T18:04:18.367Z,0.93
2019-05-09T18:06:49.391Z,1.00
2019-05-09T18:09:19.113Z,1.00
2019-05-09T18:11:48.552Z,1.07
2019-05-09T18:14:18.461Z,1.00
2019-05-09T18:16:48.076Z,1.10
2019-05-09T18:19:17.957Z,1.00
2019-05-09T18:21:50.961Z,1.00
2019-05-09T18:24:18.556Z,1.63
2019-05-09T18:26:48.269Z,1.10
2019-05-09T18:29:18.177Z,1.23
2019-05-09T18:31:49.388Z,1.50
2019-05-09T18:34:20.007Z,1.60
2019-05-09T18:36:49.711Z,1.27
2019-05-09T18:39:20.387Z,1.17
2019-05-09T18:41:50.035Z,1.20
2019-05-09T18:44:19.487Z,1.20
2019-05-09T18:46:48.976Z,1.30
2019-05-09T18:49:18.423Z,1.73
2019-05-09T18:52:01.639Z,1.30
2019-05-09T18:54:18.874Z,1.40
2019-05-09T18:56:48.345Z,1.37
2019-05-09T18:59:17.706Z,4.10
2019-05-09T19:01:47.117Z,4.20
2019-05-09T19:04:16.604Z,3.93
2019-05-09T19:06:46.022Z,2.60
2019-05-09T19:09:15.473Z,2.67
2019-05-09T19:11:45.097Z,2.60
2019-05-09T19:14:16.239Z,4.27
2019-05-09T19:16:47.316Z,4.97
2019-05-09T19:19:23.862Z,4.80
2019-05-09T19:21:54.947Z,8.13
2019-05-09T19:24:24.299Z,7.23
2019-05-09T19:26:53.686Z,5.10
2019-05-09T19:29:23.046Z,3.20
2019-05-09T19:31:52.464Z,3.13
2019-05-09T19:34:22.512Z,2.97
2019-05-09T19:36:52.982Z,2.17
2019-05-09T19:39:22.690Z,3.10
2019-05-09T19:41:52.125Z,3.13
2019-05-09T19:44:21.492Z,2.70
2019-05-09T19:46:50.864Z,3.30
2019-05-09T19:49:20.275Z,2.33
2019-05-09T19:51:49.609Z,2.27
2019-05-09T19:54:19.005Z,2.43
2019-05-09T19:56:48.425Z,2.67
2019-05-09T19:59:17.791Z,3.90
2019-05-09T20:01:47.233Z,3.73
2019-05-09T20:04:16.638Z,4.20
2019-05-09T20:06:46.077Z,4.43
2019-05-09T20:09:17.088Z,4.83
2019-05-09T20:11:54.123Z,4.23
2019-05-09T20:14:30.665Z,5.10
2019-05-09T20:17:00.036Z,4.80
2019-05-09T20:19:29.947Z,4.73
2019-05-09T20:21:59.287Z,4.87
2019-05-09T20:24:28.675Z,5.20
2019-05-09T20:26:58.067Z,4.77
2019-05-09T20:29:30.182Z,4.40
2019-05-09T20:31:58.872Z,4.67
2019-05-09T20:34:28.295Z,3.57
2019-05-09T20:36:57.645Z,4.77
2019-05-09T20:39:30.627Z,4.57
2019-05-09T20:41:58.912Z,4.63
2019-05-09T20:44:28.455Z,5.70
2019-05-09T20:46:58.012Z,5.50
2019-05-09T20:49:27.600Z,4.37
2019-05-09T20:51:57.158Z,5.80
2019-05-09T20:54:26.749Z,4.53
2019-05-09T20:56:56.301Z,4.50
2019-05-09T20:59:25.858Z,5.30
2019-05-09T21:01:55.408Z,5.07
2019-05-09T21:04:25.398Z,5.57
2019-05-09T21:06:54.988Z,5.90
2019-05-09T21:09:24.556Z,5.50
2019-05-09T21:11:54.137Z,6.07
2019-05-09T21:14:23.704Z,5.27
2019-05-09T21:16:53.284Z,5.47
2019-05-09T21:19:22.892Z,5.50
2019-05-09T21:21:52.438Z,6.20
2019-05-09T21:24:22.013Z,7.03
2019-05-09T21:26:51.974Z,6.53
2019-05-09T21:29:21.514Z,5.37
2019-05-09T21:31:51.066Z,6.47
2019-05-09T21:34:20.634Z,6.13
2019-05-09T21:36:49.987Z,7.53
2019-05-09T21:39:20.999Z,6.10
2019-05-09T21:41:50.727Z,8.37
2019-05-09T21:44:20.173Z,8.73
2019-05-09T21:46:49.469Z,8.50
2019-05-09T21:49:19.207Z,8.53
2019-05-09T21:51:48.568Z,9.30
2019-05-09T21:54:17.950Z,9.03
2019-05-09T21:56:47.358Z,8.47
2019-05-09T21:59:16.797Z,9.03
2019-05-09T22:01:47.197Z,8.57
2019-05-09T22:04:16.598Z,9.00
2019-05-09T22:06:45.960Z,9.43
2019-05-09T22:09:15.377Z,8.83
2019-05-09T22:11:44.835Z,10.35
2019-05-09T22:14:14.212Z,10.53
2019-05-09T22:16:43.884Z,9.70
2019-05-09T22:19:13.256Z,9.07
2019-05-09T22:21:42.667Z,8.87
2019-05-09T22:24:11.984Z,7.40
2019-05-09T22:26:41.449Z,7.17
2019-05-09T22:29:10.808Z,5.97
2019-05-09T22:31:40.173Z,6.53
2019-05-09T22:34:09.698Z,6.40
2019-05-09T22:36:39.099Z,7.00
2019-05-09T22:39:08.796Z,6.73
2019-05-09T22:41:38.180Z,6.60
2019-05-09T22:44:07.949Z,6.97
2019-05-09T22:46:37.327Z,7.47
2019-05-09T22:49:06.724Z,7.47
2019-05-09T22:51:36.120Z,6.33
2019-05-09T22:54:12.583Z,7.90
2019-05-09T22:56:36.704Z,9.17
2019-05-09T22:59:06.141Z,8.33
2019-05-09T23:01:35.512Z,9.90
2019-05-09T23:04:05.003Z,9.70
2019-05-09T23:06:34.388Z,9.67
2019-05-09T23:09:05.023Z,9.47
2019-05-09T23:11:34.482Z,10.20
2019-05-09T23:14:04.142Z,10.30
2019-05-09T23:16:35.168Z,11.70
2019-05-09T23:19:04.988Z,11.27
2019-05-09T23:21:34.437Z,11.77
2019-05-09T23:24:08.189Z,10.07
2019-05-09T23:26:37.636Z,12.77
2019-05-09T23:29:07.108Z,10.50
2019-05-09T23:31:38.126Z,12.60
2019-05-09T23:34:07.872Z,12.07
2019-05-09T23:36:37.250Z,12.13
2019-05-09T23:39:17.966Z,11.80
2019-05-09T23:41:47.334Z,11.37
2019-05-09T23:44:16.713Z,10.87
2019-05-09T23:46:46.108Z,10.00
2019-05-09T23:49:15.481Z,9.53
2019-05-09T23:51:49.531Z,8.47
2019-05-09T23:54:46.923Z,8.57
2019-05-09T23:57:30.996Z,8.73
